Time;durP1;ratioP1;P1;durP2;ratioP2;P2;SDS_P1;SDS_P2;PMS_P1;PMS_P2;Temp;Humidity;BMP_temperature;BMP_pressure;BME280_temperature;BME280_humidity;BME280_pressure;Samples;Min_cycle;Max_cycle;Signal;HPM_P1;HPM_P2
2023/09/02 00:00:14;;;;;;;1.45;1.35;;;;;;;24.30;46.56;99965.09;4972177;28;20502;-90
2023/09/02 00:02:40;;;;;;;1.27;1.17;;;;;;;23.86;46.58;99898.88;4954706;28;20450;-91
2023/09/02 00:05:06;;;;;;;0.52;0.43;;;;;;;24.15;46.27;99936.47;4971921;28;20043;-89
2023/09/02 00:07:31;;;;;;;1.98;1.65;;;;;;;24.03;45.70;99918.44;4971788;28;20031;-88
2023/09/02 00:09:56;;;;;;;1.05;0.82;;;;;;;24.20;46.14;99947.81;4971320;28;20054;-89
2023/09/02 00:12:22;;;;;;;2.03;1.25;;;;;;;24.15;46.12;99935.63;4954680;28;20038;-93
2023/09/02 00:14:47;;;;;;;2.65;1.02;;;;;;;24.21;46.93;99965.72;4954456;28;20150;-93
2023/09/02 00:17:13;;;;;;;1.40;0.73;;;;;;;24.08;47.08;99919.88;4953546;28;20043;-88
2023/09/02 00:19:40;;;;;;;1.70;1.27;;;;;;;24.20;47.22;99976.59;4971917;28;20061;-89
2023/09/02 00:22:06;;;;;;;3.75;1.55;;;;;;;24.14;47.06;99932.06;4970260;28;20612;-89
2023/09/02 00:24:31;;;;;;;2.65;2.08;;;;;;;24.42;46.89;99967.91;4953633;28;20058;-88
2023/09/02 00:26:57;;;;;;;2.47;1.70;;;;;;;24.28;46.27;99933.81;4954544;28;20122;-91
2023/09/02 00:29:22;;;;;;;1.17;0.93;;;;;;;24.22;46.86;99945.88;4955031;28;20413;-91
2023/09/02 00:31:48;;;;;;;1.80;1.08;;;;;;;24.25;46.97;99966.34;4954838;28;20030;-91
2023/09/02 00:34:13;;;;;;;3.45;1.08;;;;;;;24.29;46.92;99947.19;4972035;28;20039;-89
2023/09/02 00:36:39;;;;;;;2.00;1.10;;;;;;;24.15;47.23;99941.88;4971796;28;20490;-89
2023/09/02 00:39:06;;;;;;;1.73;1.27;;;;;;;24.10;47.09;99950.25;4971249;28;20027;-88
2023/09/02 00:41:43;;;;;;;1.35;1.05;;;;;;;24.44;46.43;99974.06;4971600;28;20162;-88
2023/09/02 00:44:08;;;;;;;1.08;0.98;;;;;;;24.18;46.75;99935.41;4971348;28;20126;-88
2023/09/02 00:46:34;;;;;;;1.20;1.02;;;;;;;24.23;46.65;99947.59;4954034;28;20529;-89
2023/09/02 00:49:00;;;;;;;0.80;0.75;;;;;;;24.36;46.43;99955.72;4971557;28;20122;-91
2023/09/02 00:51:27;;;;;;;1.02;0.88;;;;;;;24.23;46.44;99954.81;4971173;28;20031;-88
2023/09/02 00:53:53;;;;;;;0.82;0.70;;;;;;;24.35;46.18;99970.16;4971361;28;20031;-87
2023/09/02 00:56:19;;;;;;;1.48;1.00;;;;;;;24.16;46.02;99940.03;4971546;28;20035;-88
2023/09/02 00:58:45;;;;;;;2.53;0.77;;;;;;;24.02;46.17;99928.38;4971588;28;20041;-89
2023/09/02 01:01:11;;;;;;;1.13;0.80;;;;;;;24.24;46.65;99952.03;4971346;28;20026;-88
2023/09/02 01:03:38;;;;;;;1.17;0.88;;;;;;;24.20;46.64;99949.66;4970649;28;20038;-89
2023/09/02 01:06:04;;;;;;;0.88;0.65;;;;;;;24.22;46.87;99961.19;4971141;28;20093;-89
2023/09/02 01:08:30;;;;;;;2.10;0.93;;;;;;;24.06;46.84;99943.34;4970670;28;20043;-89
2023/09/02 01:10:58;;;;;;;1.48;0.82;;;;;;;24.13;47.24;99970.75;4953516;28;20035;-90
2023/09/02 01:13:24;;;;;;;1.00;0.88;;;;;;;23.98;47.09;99947.53;4970746;28;20042;-90
2023/09/02 01:15:50;;;;;;;1.75;1.30;;;;;;;24.08;47.15;99956.72;4970827;28;20042;-88
2023/09/02 01:18:16;;;;;;;1.05;0.82;;;;;;;24.04;47.23;99964.16;4970457;28;20030;-88
2023/09/02 01:21:09;;;;;;;1.35;1.13;;;;;;;24.22;47.25;99990.81;4953426;28;20472;-88
2023/09/02 01:23:54;;;;;;;6.47;1.27;;;;;;;23.93;47.16;99950.53;4970490;28;20055;-88
2023/09/02 01:26:38;;;;;;;2.60;1.30;;;;;;;24.13;47.34;99977.00;4970978;28;20027;-88
2023/09/02 01:29:09;;;;;;;0.90;0.50;;;;;;;23.96;47.37;99963.81;4972833;28;20027;-90
2023/09/02 01:31:36;;;;;;;1.42;0.85;;;;;;;23.86;47.80;99957.28;4974522;28;20027;-88
2023/09/02 01:34:07;;;;;;;1.52;1.10;;;;;;;23.72;47.96;99939.31;4974422;28;20824;-90
2023/09/02 01:36:33;;;;;;;2.28;1.35;;;;;;;23.68;47.93;99940.47;4973768;28;20069;-90
2023/09/02 01:38:59;;;;;;;1.33;0.93;;;;;;;23.70;48.15;99938.56;4974570;28;20123;-91
2023/09/02 01:41:27;;;;;;;1.95;1.10;;;;;;;23.84;48.31;99972.66;4957260;28;20117;-91
2023/09/02 01:43:54;;;;;;;1.67;1.15;;;;;;;23.89;48.27;99976.81;4974755;28;20027;-91
2023/09/02 01:46:21;;;;;;;7.35;1.30;;;;;;;23.61;48.70;99945.41;4956619;28;20102;-89
2023/09/02 01:48:47;;;;;;;4.05;2.00;;;;;;;23.56;49.11;99952.94;4974311;28;20190;-89
2023/09/02 01:51:13;;;;;;;1.05;0.95;;;;;;;23.56;48.81;99944.84;4974195;28;20066;-89
2023/09/02 01:53:39;;;;;;;1.42;1.08;;;;;;;23.62;48.29;99946.25;4956044;28;20421;-90
2023/09/02 01:56:05;;;;;;;1.48;1.25;;;;;;;23.39;49.32;99941.41;4956598;28;20023;-91
2023/09/02 01:58:31;;;;;;;2.50;1.38;;;;;;;23.38;49.36;99952.28;4973280;28;20062;-92
2023/09/02 02:00:57;;;;;;;2.15;0.82;;;;;;;23.54;49.37;99973.69;4974454;28;20029;-89
2023/09/02 02:03:37;;;;;;;1.90;1.10;;;;;;;23.39;49.32;99949.50;4973492;28;20070;-91
2023/09/02 02:06:08;;;;;;;0.77;0.77;;;;;;;23.38;49.35;99958.53;4956457;28;20125;-90
2023/09/02 02:08:45;;;;;;;0.88;0.70;;;;;;;23.54;49.63;99979.94;4973736;28;20027;-89
2023/09/02 02:11:11;;;;;;;1.00;0.80;;;;;;;23.24;49.91;99955.84;4974041;28;20034;-89
2023/09/02 02:13:38;;;;;;;2.38;1.27;;;;;;;23.06;50.28;99939.91;4973847;28;20054;-90
2023/09/02 02:16:04;;;;;;;1.58;0.85;;;;;;;23.03;50.40;99961.59;4956636;28;20035;-90
2023/09/02 02:18:31;;;;;;;0.77;0.63;;;;;;;23.07;50.40;99973.88;4973376;28;20047;-89
2023/09/02 02:21:02;;;;;;;2.13;0.68;;;;;;;23.05;50.39;99950.75;4974264;28;20037;-91
2023/09/02 02:23:28;;;;;;;2.25;1.50;;;;;;;22.98;51.11;99985.22;4973025;28;20062;-92
2023/09/02 02:25:58;;;;;;;4.60;2.08;;;;;;;22.79;51.32;99960.44;4958392;28;20050;-89
2023/09/02 02:28:24;;;;;;;0.85;0.68;;;;;;;22.83;51.15;99946.72;4974871;28;20031;-90
2023/09/02 02:30:49;;;;;;;1.88;1.38;;;;;;;22.45;51.29;99906.91;4973679;28;20476;-89
2023/09/02 02:33:15;;;;;;;2.35;0.95;;;;;;;22.66;51.48;99939.69;4974074;28;20027;-87
2023/09/02 02:35:40;;;;;;;3.05;1.73;;;;;;;22.82;51.84;99973.69;4973410;28;20113;-88
2023/09/02 02:38:06;;;;;;;1.50;1.40;;;;;;;22.77;51.46;99962.34;4973154;28;20065;-89
2023/09/02 02:40:31;;;;;;;2.58;1.35;;;;;;;22.94;51.14;99969.38;4973445;28;20038;-91
2023/09/02 02:42:56;;;;;;;3.70;1.83;;;;;;;22.71;51.47;99951.00;4956288;28;20073;-92
2023/09/02 02:45:22;;;;;;;1.85;0.93;;;;;;;22.64;52.08;99946.97;4955799;28;20423;-92
2023/09/02 02:47:47;;;;;;;1.75;0.77;;;;;;;22.65;52.34;99959.47;4973356;28;20481;-92
2023/09/02 02:50:13;;;;;;;1.27;0.68;;;;;;;22.68;52.51;99955.72;4973257;28;20402;-90
2023/09/02 02:52:39;;;;;;;4.30;1.70;;;;;;;22.34;52.36;99912.94;4973623;28;20081;-90
2023/09/02 02:55:05;;;;;;;1.83;1.13;;;;;;;22.56;52.51;99945.72;4973607;28;20049;-91
2023/09/02 02:57:30;;;;;;;2.90;1.17;;;;;;;22.51;52.79;99927.19;4972933;28;20093;-90
2023/09/02 02:59:56;;;;;;;1.08;0.98;;;;;;;22.50;53.11;99918.25;4973308;28;20030;-90
2023/09/02 03:02:21;;;;;;;3.80;2.95;;;;;;;22.55;53.25;99919.78;4973225;28;20026;-90
2023/09/02 03:04:48;;;;;;;2.72;1.80;;;;;;;22.62;53.37;99940.81;4972986;28;20034;-89
2023/09/02 03:07:14;;;;;;;3.25;1.50;;;;;;;22.48;53.26;99920.16;4955336;28;20034;-90
2023/09/02 03:09:40;;;;;;;0.85;0.85;;;;;;;22.64;53.27;99944.28;4973434;28;20468;-93
2023/09/02 03:12:06;;;;;;;3.28;1.33;;;;;;;22.63;53.08;99930.94;4956549;28;20490;-95
2023/09/02 03:14:32;;;;;;;2.92;1.70;;;;;;;22.66;52.96;99971.06;4955285;28;20023;-90
2023/09/02 03:16:58;;;;;;;4.10;1.77;;;;;;;22.61;53.61;99946.31;4955390;28;20039;-91
2023/09/02 03:19:23;;;;;;;1.77;1.17;;;;;;;22.49;53.73;99948.78;4955453;28;20034;-90
2023/09/02 03:21:49;;;;;;;1.73;1.08;;;;;;;22.47;53.86;99955.19;4972971;28;20045;-89
2023/09/02 03:24:14;;;;;;;2.15;1.70;;;;;;;22.45;54.04;99947.22;4972436;28;20043;-90
2023/09/02 03:26:40;;;;;;;3.17;2.03;;;;;;;22.48;54.51;99965.00;4972766;28;20043;-92
2023/09/02 03:29:05;;;;;;;14.23;2.25;;;;;;;22.56;54.21;99973.47;4955358;28;20402;-94
2023/09/02 03:31:30;;;;;;;3.00;1.98;;;;;;;22.46;54.63;99969.59;4954906;28;20057;-91
2023/09/02 03:33:56;;;;;;;1.25;1.15;;;;;;;22.27;54.96;99949.16;4972429;28;20109;-90
2023/09/02 03:36:21;;;;;;;4.25;1.58;;;;;;;22.38;55.04;99969.19;4972834;28;20082;-90
2023/09/02 03:38:47;;;;;;;2.65;1.50;;;;;;;22.44;55.09;99979.56;4972499;28;20137;-91
2023/09/02 03:41:17;;;;;;;2.35;1.90;;;;;;;22.05;55.53;99956.78;4971088;28;20123;-91
2023/09/02 03:43:42;;;;;;;1.58;0.95;;;;;;;22.14;55.41;99973.22;4972262;28;20038;-91
2023/09/02 03:46:08;;;;;;;3.47;1.38;;;;;;;21.99;55.66;99953.47;4954578;28;20354;-91
2023/09/02 03:48:33;;;;;;;2.35;1.50;;;;;;;21.96;55.66;99971.59;4972189;28;20031;-90
2023/09/02 03:51:11;;;;;;;2.60;1.15;;;;;;;22.17;55.81;99996.34;4971042;28;20146;-93
2023/09/02 03:53:37;;;;;;;13.38;3.20;;;;;;;22.05;55.78;99976.44;4971122;28;20027;-89
2023/09/02 03:56:03;;;;;;;3.25;1.75;;;;;;;21.91;55.62;99947.69;4973554;28;20130;-90
2023/09/02 03:58:29;;;;;;;2.65;1.52;;;;;;;22.26;55.76;100001.19;4991199;28;20479;-89
2023/09/02 04:00:55;;;;;;;1.83;1.52;;;;;;;22.02;56.24;99970.38;4991127;28;20100;-90
2023/09/02 04:03:21;;;;;;;3.53;2.53;;;;;;;21.92;56.51;99962.84;4991105;28;20048;-89
2023/09/02 04:05:47;;;;;;;1.02;0.82;;;;;;;22.12;56.25;99980.50;4991035;28;20087;-89
2023/09/02 04:08:15;;;;;;;3.17;1.70;;;;;;;22.22;56.34;100002.31;4990988;28;20034;-90
2023/09/02 04:10:40;;;;;;;5.63;1.10;;;;;;;21.97;56.47;99959.91;4990792;28;20140;-89
2023/09/02 04:13:06;;;;;;;3.33;1.65;;;;;;;21.96;56.81;99961.69;4973625;28;20034;-89
2023/09/02 04:15:31;;;;;;;1.17;0.85;;;;;;;22.05;56.84;99978.25;4991355;28;20121;-87
2023/09/02 04:17:57;;;;;;;5.60;2.70;;;;;;;22.07;57.21;99998.69;4990636;28;20106;-90
2023/09/02 04:20:22;;;;;;;2.70;1.83;;;;;;;22.25;57.42;100012.03;4991229;28;20429;-90
2023/09/02 04:22:48;;;;;;;3.42;2.10;;;;;;;21.90;57.64;99977.31;4990199;28;20138;-89
2023/09/02 04:25:15;;;;;;;2.50;1.45;;;;;;;21.69;58.05;100006.25;4990552;28;20456;-90
2023/09/02 04:27:40;;;;;;;13.75;1.45;;;;;;;21.91;57.42;100009.44;4986214;28;20106;-91
2023/09/02 04:30:06;;;;;;;3.10;1.50;;;;;;;21.86;57.21;99989.19;4976324;28;20160;-92
2023/09/02 04:32:32;;;;;;;2.78;1.80;;;;;;;22.18;56.53;100004.31;4963689;28;20116;-91
2023/09/02 04:34:57;;;;;;;3.38;2.28;;;;;;;22.11;56.46;100002.94;4978706;28;20400;-90
2023/09/02 04:37:23;;;;;;;1.92;1.30;;;;;;;22.16;56.51;100000.84;4954022;28;20035;-89
2023/09/02 04:39:48;;;;;;;2.05;1.23;;;;;;;22.12;55.96;99988.56;4970341;28;20505;-90
2023/09/02 04:42:14;;;;;;;1.35;0.82;;;;;;;22.05;55.19;99975.56;4977201;28;20548;-89
2023/09/02 04:44:39;;;;;;;2.67;1.60;;;;;;;22.16;55.21;100021.47;4979637;28;20030;-90
2023/09/02 04:47:06;;;;;;;3.50;2.90;;;;;;;22.05;55.04;100021.22;4963533;28;20125;-88
2023/09/02 04:49:32;;;;;;;4.00;2.33;;;;;;;22.18;54.76;100009.69;4972811;28;20065;-87
2023/09/02 04:51:58;;;;;;;2.45;1.45;;;;;;;22.17;54.66;99996.34;4963254;28;20083;-88
2023/09/02 04:54:23;;;;;;;1.58;1.38;;;;;;;22.38;54.32;100015.72;4979420;28;20077;-88
2023/09/02 04:56:49;;;;;;;1.77;1.45;;;;;;;22.36;54.13;100009.59;4970968;28;20030;-92
2023/09/02 04:59:15;;;;;;;1.33;1.20;;;;;;;22.53;54.04;100020.19;4970544;28;20038;-89
2023/09/02 05:01:40;;;;;;;1.55;1.13;;;;;;;22.57;53.58;100009.25;4969521;28;20027;-90
2023/09/02 05:04:06;;;;;;;1.60;1.20;;;;;;;22.65;53.24;99997.09;4972835;28;20485;-90
2023/09/02 05:06:31;;;;;;;1.00;0.80;;;;;;;22.70;53.42;99991.44;4957672;28;20026;-90
2023/09/02 05:08:57;;;;;;;4.28;2.50;;;;;;;23.07;53.06;100035.75;4973745;28;20035;-89
2023/09/02 05:11:22;;;;;;;1.85;1.35;;;;;;;22.94;52.76;99986.41;4975057;28;20027;-89
2023/09/02 05:13:48;;;;;;;9.20;1.90;;;;;;;23.41;52.17;100033.69;4975335;28;20129;-88
2023/09/02 05:16:14;;;;;;;2.55;1.73;;;;;;;23.56;51.53;100020.25;4983567;28;20035;-88
2023/09/02 05:18:39;;;;;;;1.95;1.27;;;;;;;23.45;51.92;99987.72;4962366;28;20034;-88
2023/09/02 05:21:05;;;;;;;1.65;1.13;;;;;;;23.78;52.31;100008.94;4983463;28;20058;-88
2023/09/02 05:23:30;;;;;;;1.27;1.00;;;;;;;24.06;52.60;100047.56;4977940;28;20101;-88
2023/09/02 05:25:56;;;;;;;3.33;1.90;;;;;;;24.24;52.17;100054.44;4984406;28;20055;-88
2023/09/02 05:28:25;;;;;;;3.08;1.67;;;;;;;24.40;51.67;100039.94;4984048;28;20081;-89
2023/09/02 05:30:51;;;;;;;5.03;1.50;;;;;;;24.38;51.27;100034.66;4982962;28;20037;-89
2023/09/02 05:33:17;;;;;;;1.95;1.50;;;;;;;24.53;51.57;100015.69;4984962;28;20026;-89
2023/09/02 05:35:46;;;;;;;3.60;1.65;;;;;;;24.77;52.35;100023.97;4965829;28;20026;-89
2023/09/02 05:38:11;;;;;;;2.92;2.08;;;;;;;24.96;51.63;100039.75;4983387;28;20026;-89
2023/09/02 05:40:42;;;;;;;2.03;1.23;;;;;;;24.93;51.60;99991.41;4979346;28;20109;-90
2023/09/02 05:43:08;;;;;;;4.47;1.52;;;;;;;25.12;51.88;100001.78;4973428;28;20070;-91
2023/09/02 05:45:33;;;;;;;4.72;2.60;;;;;;;25.43;51.04;100037.41;4980664;28;20089;-92
2023/09/02 05:48:00;;;;;;;5.15;2.17;;;;;;;25.54;51.40;100032.94;4964207;28;20035;-90
2023/09/02 05:50:26;;;;;;;4.43;1.77;;;;;;;25.81;50.81;100048.16;4978410;28;20035;-91
2023/09/02 05:52:52;;;;;;;3.03;2.10;;;;;;;25.82;50.29;100051.69;4988964;28;20041;-91
2023/09/02 05:55:17;;;;;;;11.85;2.20;;;;;;;25.80;50.13;100022.09;5003360;28;20046;-88
2023/09/02 05:57:42;;;;;;;8.20;4.10;;;;;;;25.91;50.37;100024.84;5004139;28;20042;-89
2023/09/02 06:00:08;;;;;;;7.55;4.25;;;;;;;25.96;50.80;100029.06;5004812;28;20037;-88
2023/09/02 06:02:34;;;;;;;8.40;2.22;;;;;;;26.35;49.74;100057.69;5000984;28;20023;-88
2023/09/02 06:05:00;;;;;;;5.72;1.65;;;;;;;26.20;48.81;100023.72;4977227;28;20484;-88
2023/09/02 06:07:26;;;;;;;4.40;2.28;;;;;;;26.24;49.11;100020.66;4976091;28;20493;-87
2023/09/02 06:09:51;;;;;;;5.30;3.03;;;;;;;26.16;49.77;100031.16;4987092;28;20048;-88
2023/09/02 06:12:17;;;;;;;2.72;1.75;;;;;;;26.32;50.56;100055.22;4994064;28;20038;-88
2023/09/02 06:14:42;;;;;;;2.80;2.08;;;;;;;26.64;49.77;100051.91;4992880;28;20022;-86
2023/09/02 06:17:08;;;;;;;11.85;3.28;;;;;;;26.79;48.38;100080.53;4991955;28;20084;-86
2023/09/02 06:19:34;;;;;;;3.70;1.92;;;;;;;27.04;48.31;100062.38;4970351;28;20035;-86
2023/09/02 06:22:01;;;;;;;1.75;1.35;;;;;;;27.07;46.70;100015.28;4990757;28;20041;-91
2023/09/02 06:24:27;;;;;;;3.00;1.77;;;;;;;27.66;46.01;100069.22;4992941;28;20027;-88
2023/09/02 06:26:53;;;;;;;3.80;1.80;;;;;;;27.50;45.95;100079.59;4993267;28;20038;-88
2023/09/02 06:29:18;;;;;;;5.65;2.60;;;;;;;27.71;45.37;100060.72;4991837;28;20084;-88
2023/09/02 06:31:45;;;;;;;10.45;2.30;;;;;;;27.92;45.18;100035.59;4992176;28;20034;-88
2023/09/02 06:34:11;;;;;;;6.57;3.42;;;;;;;28.06;44.18;100046.16;4992403;28;20073;-89
2023/09/02 06:36:37;;;;;;;3.78;2.00;;;;;;;27.78;44.46;100032.16;4974558;28;20084;-88
2023/09/02 06:39:03;;;;;;;3.95;2.22;;;;;;;27.97;44.18;100050.50;4992016;28;20030;-88
2023/09/02 06:41:29;;;;;;;4.43;2.85;;;;;;;28.47;44.34;100055.41;4991376;28;20076;-88
2023/09/02 06:43:54;;;;;;;7.75;2.50;;;;;;;28.86;43.21;100033.19;4991710;28;20026;-88
2023/09/02 06:46:20;;;;;;;4.45;1.75;;;;;;;29.56;42.37;100057.88;4990484;28;20101;-88
2023/09/02 06:48:47;;;;;;;3.97;2.55;;;;;;;29.31;40.72;100051.91;4976895;28;20034;-86
2023/09/02 06:51:14;;;;;;;18.50;2.90;;;;;;;29.54;39.66;100032.69;4971895;28;20148;-89
2023/09/02 06:53:41;;;;;;;3.90;2.10;;;;;;;29.72;39.78;100051.91;4954718;28;20410;-86
2023/09/02 06:56:11;;;;;;;7.15;2.30;;;;;;;30.02;38.42;100025.72;4977858;28;20046;-86
2023/09/02 06:58:40;;;;;;;2.80;1.85;;;;;;;30.44;37.62;100047.25;4973560;28;20052;-88
2023/09/02 07:01:05;;;;;;;5.20;1.55;;;;;;;30.60;35.80;100042.09;4977803;28;20043;-88
2023/09/02 07:03:31;;;;;;;2.03;1.45;;;;;;;30.78;36.09;100039.50;4983224;28;20496;-88
2023/09/02 07:06:13;;;;;;;2.15;0.95;;;;;;;30.92;34.78;100013.66;4988996;28;20031;-87
2023/09/02 07:08:39;;;;;;;1.50;1.17;;;;;;;31.08;32.03;100044.91;4988013;28;20033;-87
2023/09/02 07:11:05;;;;;;;2.38;1.67;;;;;;;31.61;32.45;100043.50;4989882;28;20421;-88
2023/09/02 07:13:31;;;;;;;2.47;1.45;;;;;;;31.74;31.42;100042.09;4991225;28;20485;-87
2023/09/02 07:16:01;;;;;;;1.90;1.10;;;;;;;31.45;34.19;100033.19;4968390;28;20039;-88
2023/09/02 07:18:27;;;;;;;1.73;1.27;;;;;;;31.51;33.43;100018.94;4988839;28;20029;-88
2023/09/02 07:20:56;;;;;;;2.40;1.77;;;;;;;31.92;31.78;100039.41;4991641;28;20030;-88
2023/09/02 07:23:21;;;;;;;2.83;1.60;;;;;;;31.43;32.06;100016.97;4990223;28;20046;-88
2023/09/02 07:25:47;;;;;;;1.08;0.80;;;;;;;31.64;31.81;100052.22;4973032;28;20030;-87
2023/09/02 07:28:12;;;;;;;2.10;1.08;;;;;;;31.99;31.33;100015.09;4988221;28;20046;-88
2023/09/02 07:30:38;;;;;;;6.07;3.42;;;;;;;32.47;32.57;100023.97;4990233;28;20409;-88
2023/09/02 07:33:03;;;;;;;2.97;2.35;;;;;;;32.73;30.67;100048.63;4974551;28;20400;-88
2023/09/02 07:35:29;;;;;;;2.40;1.67;;;;;;;32.84;29.13;100031.13;4989213;28;20023;-88
2023/09/02 07:37:54;;;;;;;4.30;0.90;;;;;;;32.38;30.00;100033.97;4981030;28;20061;-88
2023/09/02 07:40:20;;;;;;;2.42;1.00;;;;;;;32.23;29.95;100038.25;4978503;28;20457;-89
2023/09/02 07:42:45;;;;;;;2.67;1.17;;;;;;;32.40;29.79;100047.47;4982516;28;20019;-89
2023/09/02 07:45:11;;;;;;;3.08;1.38;;;;;;;32.48;29.42;100042.06;4980395;28;20093;-89
2023/09/02 07:47:37;;;;;;;2.60;1.02;;;;;;;32.54;29.71;100046.06;4981167;28;20106;-88
2023/09/02 07:50:02;;;;;;;2.35;1.65;;;;;;;32.47;30.50;100034.88;4981897;28;20065;-89
2023/09/02 07:52:29;;;;;;;1.58;1.13;;;;;;;32.26;29.79;100019.69;4980568;28;20390;-90
2023/09/02 07:54:55;;;;;;;1.15;0.70;;;;;;;32.68;28.92;100045.50;4985910;28;20022;-89
2023/09/02 07:57:20;;;;;;;1.38;0.93;;;;;;;32.60;28.91;100012.66;4986470;28;20041;-89
2023/09/02 07:59:46;;;;;;;1.42;1.00;;;;;;;33.10;29.38;100033.88;4984501;28;20039;-90
2023/09/02 08:02:11;;;;;;;5.72;1.33;;;;;;;33.20;30.00;100044.75;4963521;28;20085;-92
2023/09/02 08:04:37;;;;;;;3.90;1.33;;;;;;;33.39;29.00;100040.06;4986808;28;20030;-94
2023/09/02 08:07:02;;;;;;;2.63;1.23;;;;;;;33.19;28.29;100007.50;4989073;28;20046;-91
2023/09/02 08:09:28;;;;;;;1.50;0.90;;;;;;;33.26;28.15;100043.22;4990459;28;20073;-90
2023/09/02 08:11:53;;;;;;;2.35;0.95;;;;;;;32.71;28.35;100030.69;4991063;28;20034;-91
2023/09/02 08:14:19;;;;;;;1.80;1.02;;;;;;;32.76;29.02;100051.03;4991096;28;20033;-92
2023/09/02 08:16:44;;;;;;;1.63;0.85;;;;;;;32.71;28.94;100071.66;4991646;28;20033;-95
2023/09/02 08:19:10;;;;;;;2.40;0.90;;;;;;;32.73;28.36;100051.34;4970856;28;20031;-93
2023/09/02 08:21:35;;;;;;;2.55;1.38;;;;;;;33.20;27.94;100039.28;4971710;28;20045;-94
2023/09/02 08:24:00;;;;;;;1.20;0.77;;;;;;;33.40;28.73;100050.84;4990591;28;20429;-94
2023/09/02 08:26:26;;;;;;;1.58;1.10;;;;;;;33.45;27.77;100059.38;4957811;28;20132;-94
2023/09/02 08:28:51;;;;;;;1.75;0.93;;;;;;;33.30;27.83;100053.66;4973070;28;20092;-92
2023/09/02 08:31:23;;;;;;;2.30;0.88;;;;;;;33.02;28.16;100039.28;4974186;28;20053;-91
2023/09/02 08:33:48;;;;;;;0.73;0.45;;;;;;;33.71;28.22;100059.38;4990678;28;20030;-90
2023/09/02 08:36:15;;;;;;;2.90;0.77;;;;;;;34.07;28.40;100052.84;4984063;28;20476;-89
2023/09/02 08:38:42;;;;;;;2.75;1.35;;;;;;;33.85;27.39;100008.66;4982054;28;20524;-90
2023/09/02 08:41:32;;;;;;;10.07;1.10;;;;;;;34.20;26.74;100003.06;4981223;28;20034;-86
2023/09/02 08:44:02;;;;;;;1.65;0.90;;;;;;;33.97;26.92;100019.28;4922782;29;20039;-91
2023/09/02 08:46:31;;;;;;;3.10;1.20;;;;;;;33.98;27.94;100015.53;4929357;29;20146;-87
2023/09/02 08:48:57;;;;;;;4.43;1.10;;;;;;;33.92;27.18;100062.69;4930368;29;20052;-91
2023/09/02 08:51:24;;;;;;;0.82;0.82;;;;;;;33.41;28.04;100058.00;4915933;29;20081;-93
2023/09/02 08:53:53;;;;;;;4.70;1.55;;;;;;;32.85;28.05;100008.28;4931053;29;20481;-90
2023/09/02 08:56:19;;;;;;;2.25;1.17;;;;;;;32.79;28.52;100026.13;4928459;29;20043;-92
2023/09/02 08:58:45;;;;;;;2.20;0.95;;;;;;;33.37;27.97;100064.81;4922489;29;20031;-92
2023/09/02 09:01:16;;;;;;;2.45;1.08;;;;;;;33.32;29.79;100043.44;4938354;29;20191;-89
2023/09/02 09:03:48;;;;;;;1.55;1.02;;;;;;;33.51;27.11;100020.47;4930600;29;20043;-89
2023/09/02 09:06:14;;;;;;;1.58;0.93;;;;;;;33.40;27.31;100022.63;4929717;29;20032;-89
2023/09/02 09:08:41;;;;;;;1.83;1.00;;;;;;;32.99;27.73;100050.53;4930252;29;20087;-94
2023/09/02 09:11:07;;;;;;;1.35;0.90;;;;;;;32.70;28.78;100042.63;4914438;29;20553;-89
2023/09/02 09:13:35;;;;;;;1.13;0.82;;;;;;;32.65;28.32;100030.28;4913402;29;20036;-89
2023/09/02 09:16:03;;;;;;;1.08;0.70;;;;;;;32.64;27.51;100012.22;4930175;29;20051;-89
2023/09/02 09:18:29;;;;;;;1.63;0.90;;;;;;;32.74;27.90;100031.22;4930366;29;20036;-92
2023/09/02 09:20:55;;;;;;;1.05;0.68;;;;;;;32.57;28.35;100041.13;4955308;28;20074;-93
2023/09/02 09:23:22;;;;;;;0.80;0.70;;;;;;;32.52;28.49;100035.28;4960956;28;20167;-93
2023/09/02 09:25:59;;;;;;;3.10;0.68;;;;;;;32.69;28.77;100016.31;4969466;28;20497;-95
2023/09/02 09:28:24;;;;;;;0.90;0.68;;;;;;;32.57;29.00;99994.72;4963735;28;20465;-90
2023/09/02 09:30:51;;;;;;;1.95;1.17;;;;;;;32.63;30.27;99990.50;4979675;28;20054;-96
2023/09/02 09:33:18;;;;;;;2.35;1.08;;;;;;;32.41;28.37;99979.06;4985465;28;20038;-91
2023/09/02 09:35:43;;;;;;;5.57;1.20;;;;;;;32.48;28.81;100009.31;4988135;28;20136;-93
2023/09/02 09:38:12;;;;;;;1.08;0.80;;;;;;;32.56;28.07;100011.25;4974171;28;20042;-93
2023/09/02 09:40:42;;;;;;;2.40;1.40;;;;;;;32.27;27.95;100001.44;4963838;28;20151;-94
2023/09/02 09:43:16;;;;;;;2.80;1.25;;;;;;;32.49;27.58;99986.47;4978576;28;20104;-95
2023/09/02 09:46:00;;;;;;;1.40;1.27;;;;;;;32.36;28.49;99991.47;4984528;28;20054;-90
2023/09/02 09:48:25;;;;;;;1.48;0.98;;;;;;;32.40;28.32;99980.06;4984551;28;20035;-90
2023/09/02 09:50:51;;;;;;;1.02;0.70;;;;;;;32.44;28.15;99992.41;4986417;28;20460;-89
2023/09/02 09:53:17;;;;;;;1.25;0.80;;;;;;;32.44;28.67;99984.22;4987483;28;20030;-94
2023/09/02 09:55:43;;;;;;;2.08;1.33;;;;;;;32.46;28.06;99968.53;4967297;28;20500;-92
2023/09/02 09:58:09;;;;;;;1.77;0.70;;;;;;;32.64;28.04;99986.72;4993491;28;20035;-92
2023/09/02 10:00:34;;;;;;;1.80;0.98;;;;;;;32.63;27.52;99985.88;4975231;28;20029;-91
2023/09/02 10:03:00;;;;;;;1.15;1.05;;;;;;;32.51;27.86;99943.47;4985698;28;20106;-92
2023/09/02 10:05:25;;;;;;;1.17;0.70;;;;;;;32.74;27.73;100003.91;4991014;28;20038;-91
2023/09/02 10:08:03;;;;;;;0.93;0.55;;;;;;;32.88;27.49;99982.53;4993244;28;20032;-92
2023/09/02 10:10:31;;;;;;;2.10;1.15;;;;;;;32.76;27.53;100001.03;4992575;28;20085;-90
2023/09/02 10:12:58;;;;;;;1.60;0.98;;;;;;;32.57;28.07;99983.78;4983689;28;20031;-89
2023/09/02 10:15:25;;;;;;;2.20;1.48;;;;;;;32.80;28.19;99981.44;4989103;28;20026;-90
2023/09/02 10:18:03;;;;;;;1.80;1.08;;;;;;;33.07;27.28;99985.00;4984425;28;20031;-90
2023/09/02 10:20:34;;;;;;;13.80;1.80;;;;;;;33.08;27.01;99986.72;4977273;28;20101;-89
2023/09/02 10:23:08;;;;;;;3.53;1.58;;;;;;;32.94;26.70;99974.53;4993791;28;20121;-89
2023/09/02 10:25:55;;;;;;;1.65;0.98;;;;;;;32.98;26.82;99997.78;4992961;28;20489;-89
2023/09/02 10:28:28;;;;;;;1.58;1.05;;;;;;;32.37;27.09;99974.94;4992640;28;20500;-90
2023/09/02 10:30:58;;;;;;;2.65;0.95;;;;;;;32.49;27.46;99964.63;4975950;28;20093;-91
2023/09/02 10:33:54;;;;;;;2.65;1.08;;;;;;;32.38;27.08;99957.53;4975784;28;20132;-90
2023/09/02 10:36:26;;;;;;;1.20;0.88;;;;;;;32.64;26.93;99984.00;4972322;28;20185;-95
2023/09/02 10:38:53;;;;;;;0.95;0.55;;;;;;;32.40;27.23;99950.03;4958636;28;20057;-94
2023/09/02 10:41:22;;;;;;;1.88;1.10;;;;;;;32.42;27.03;99955.34;4992523;28;20034;-89
2023/09/02 10:43:48;;;;;;;1.45;1.17;;;;;;;32.56;27.16;99960.22;4992419;28;20038;-86
2023/09/02 10:46:13;;;;;;;1.40;1.05;;;;;;;32.76;26.51;99960.91;4992722;28;20754;-90
2023/09/02 10:48:42;;;;;;;0.85;0.52;;;;;;;32.53;26.65;99966.00;4975375;28;20030;-90
2023/09/02 10:51:09;;;;;;;1.42;0.80;;;;;;;32.27;26.93;99971.41;4994356;28;20092;-93
2023/09/02 10:54:00;;;;;;;0.88;0.60;;;;;;;32.45;27.16;99980.44;4974916;28;20121;-90
2023/09/02 10:56:34;;;;;;;0.82;0.77;;;;;;;32.23;26.68;99959.13;4991356;28;20460;-94
2023/09/02 10:59:02;;;;;;;2.07;1.13;;;;;;;32.54;26.34;99981.38;4993222;28;20038;-93
2023/09/02 11:01:48;;;;;;;2.85;1.02;;;;;;;32.89;26.19;99951.44;4974902;28;20125;-90
2023/09/02 11:04:34;;;;;;;1.25;0.60;;;;;;;32.95;25.60;99929.81;4992296;28;20562;-90
2023/09/02 11:07:18;;;;;;;1.33;1.00;;;;;;;33.11;26.01;99963.69;4975052;28;20117;-89
2023/09/02 11:09:55;;;;;;;1.65;1.05;;;;;;;33.04;25.84;99947.09;4992417;28;20030;-89
2023/09/02 11:12:21;;;;;;;1.13;0.95;;;;;;;32.98;25.38;99934.94;4992243;28;20052;-90
2023/09/02 11:15:07;;;;;;;1.55;0.80;;;;;;;32.78;25.58;99953.44;4992243;28;20548;-89
2023/09/02 11:17:33;;;;;;;1.13;1.02;;;;;;;32.94;25.76;99941.75;4951569;29;20198;-90
2023/09/02 11:20:00;;;;;;;2.80;1.42;;;;;;;32.94;26.03;99917.16;4951471;29;20047;-90
2023/09/02 11:23:08;;;;;;;1.15;1.00;;;;;;;32.92;25.39;99924.66;4951012;29;20118;-89
2023/09/02 11:25:39;;;;;;;2.78;1.25;;;;;;;32.59;26.31;99942.69;4935128;29;20043;-85
2023/09/02 11:28:29;;;;;;;1.35;0.65;;;;;;;32.22;25.84;99941.88;4951608;29;20070;-93
2023/09/02 11:31:09;;;;;;;4.22;1.20;;;;;;;32.44;25.95;99935.06;4953383;29;20051;-94